WESTPORT MEDIA Westport In The Media

Enter your "Place, State", US Zip Code or ICAO:  

Palma De Mallorca / Son San Juan, Spain

 Lat: 39.55N, Lon: 2.73E
ICAO Used: LEPA
Current Conditions
Updated: 10:00 AM GMT1 THU OCT 23 2014
Sun & Moon Information
Mostly Clear
Mostly Clear
Temp: 22°C
Humidity: 64%
Wind Speed: WSW 5 MPH
Barometer: 1021 mb
Dewpoint: 15°C
Heat Index: 24°C
Wind Chill: 22°C
Civil Twilight: 6:38 AM GMT1 Moon Phase:
Waxing Crescent Moon
Sunrise: 7:05 AM GMT1
Sunset: 5:59 PM GMT1
Civil Twilight: 6:27 PM GMT1
Forecast for Palma De Mallorca / Son San Juan, Spain:
(Forecast based on TAF for )
1000 AM GMT1 THU OCT 23 2014
  
MORNING AFTERNOON EVENING OVERNIGHT
Fair N/A Fair Fair
ZoneCast:
Dated: 1000 AM GMT1 THU OCT 23 2014
Morning...Becoming fair with winds from the northwest at 12 mph.

Afternoon...A percent chance to with winds from the at mph.

Evening...A percent chance to fair with winds from the variable at 3 mph.

Overnight...Fair winds variable in direction at 3 mph.

Original Encoded TAF:
Dated: 1000 AM GMT1 THU OCT 23 2014
TAF LEPA 230500Z 2306/2406 VRB04KT 9999 FEW020 TX25/2312Z TN13/2306Z 
     BECMG 2309/2312 30010KT 
     PROB30 2310/2317 24010KT 
     BECMG 2317/2320 VRB03KT